sensor_id;sensor_type;location;lat;lon;timestamp;pressure;altitude;pressure_sealevel;temperature;humidity
65800;BME280;52544;48.116;11.660;2023-11-21T00:00:09;95098.22;;;7.73;100.00
65800;BME280;52544;48.116;11.660;2023-11-21T00:02:37;95108.19;;;7.70;100.00
65800;BME280;52544;48.116;11.660;2023-11-21T00:05:12;95100.16;;;7.60;100.00
65800;BME280;52544;48.116;11.660;2023-11-21T00:07:40;95100.88;;;7.62;100.00
65800;BME280;52544;48.116;11.660;2023-11-21T00:10:06;95096.81;;;7.69;100.00
65800;BME280;52544;48.116;11.660;2023-11-21T00:12:36;95092.16;;;7.62;100.00
65800;BME280;52544;48.116;11.660;2023-11-21T00:15:03;95094.66;;;7.63;100.00
65800;BME280;52544;48.116;11.660;2023-11-21T00:17:30;95095.16;;;7.57;100.00
65800;BME280;52544;48.116;11.660;2023-11-21T00:19:55;95090.59;;;7.59;100.00
65800;BME280;52544;48.116;11.660;2023-11-21T00:22:21;95089.91;;;7.57;100.00
65800;BME280;52544;48.116;11.660;2023-11-21T00:24:47;95089.69;;;7.49;100.00
65800;BME280;52544;48.116;11.660;2023-11-21T00:27:13;95084.75;;;7.56;100.00
65800;BME280;52544;48.116;11.660;2023-11-21T00:29:39;95078.91;;;7.52;100.00
65800;BME280;52544;48.116;11.660;2023-11-21T00:32:05;95073.16;;;7.47;100.00
65800;BME280;52544;48.116;11.660;2023-11-21T00:34:31;95059.69;;;7.40;100.00
65800;BME280;52544;48.116;11.660;2023-11-21T00:36:57;95059.53;;;7.42;100.00
65800;BME280;52544;48.116;11.660;2023-11-21T00:39:23;95061.78;;;7.46;100.00
65800;BME280;52544;48.116;11.660;2023-11-21T00:41:48;95062.41;;;7.39;100.00
65800;BME280;52544;48.116;11.660;2023-11-21T00:44:14;95060.28;;;7.33;100.00
65800;BME280;52544;48.116;11.660;2023-11-21T00:46:39;95062.91;;;7.33;100.00
65800;BME280;52544;48.116;11.660;2023-11-21T00:49:05;95048.34;;;7.29;100.00
65800;BME280;52544;48.116;11.660;2023-11-21T00:51:30;95050.84;;;7.30;100.00
65800;BME280;52544;48.116;11.660;2023-11-21T00:53:56;95052.63;;;7.30;100.00
65800;BME280;52544;48.116;11.660;2023-11-21T00:56:22;95053.97;;;7.24;100.00
65800;BME280;52544;48.116;11.660;2023-11-21T00:58:47;95049.56;;;7.13;100.00
65800;BME280;52544;48.116;11.660;2023-11-21T01:01:15;95050.53;;;7.12;100.00
65800;BME280;52544;48.116;11.660;2023-11-21T01:03:41;95055.19;;;7.09;100.00
65800;BME280;52544;48.116;11.660;2023-11-21T01:06:07;95051.03;;;7.06;100.00
65800;BME280;52544;48.116;11.660;2023-11-21T01:08:33;95047.91;;;7.12;100.00
65800;BME280;52544;48.116;11.660;2023-11-21T01:10:58;95060.59;;;7.07;100.00
65800;BME280;52544;48.116;11.660;2023-11-21T01:13:24;95058.66;;;7.09;100.00
65800;BME280;52544;48.116;11.660;2023-11-21T01:15:53;95055.19;;;7.09;100.00
65800;BME280;52544;48.116;11.660;2023-11-21T01:18:19;95053.75;;;7.05;100.00
65800;BME280;52544;48.116;11.660;2023-11-21T01:20:44;95053.19;;;7.01;100.00
65800;BME280;52544;48.116;11.660;2023-11-21T01:23:12;95047.19;;;6.99;100.00
65800;BME280;52544;48.116;11.660;2023-11-21T01:25:37;95048.78;;;7.01;100.00
65800;BME280;52544;48.116;11.660;2023-11-21T01:28:03;95047.44;;;7.07;100.00
65800;BME280;52544;48.116;11.660;2023-11-21T01:30:28;95043.25;;;7.05;100.00
65800;BME280;52544;48.116;11.660;2023-11-21T01:32:54;95046.50;;;6.97;100.00
65800;BME280;52544;48.116;11.660;2023-11-21T01:35:19;95046.00;;;6.92;100.00
65800;BME280;52544;48.116;11.660;2023-11-21T01:37:45;95055.97;;;6.88;100.00
65800;BME280;52544;48.116;11.660;2023-11-21T01:40:10;95058.00;;;6.85;100.00
65800;BME280;52544;48.116;11.660;2023-11-21T01:42:38;95059.91;;;6.83;100.00
65800;BME280;52544;48.116;11.660;2023-11-21T01:45:04;95063.72;;;6.79;100.00
65800;BME280;52544;48.116;11.660;2023-11-21T01:47:31;95058.34;;;6.80;100.00
65800;BME280;52544;48.116;11.660;2023-11-21T01:49:57;95054.31;;;6.76;100.00
65800;BME280;52544;48.116;11.660;2023-11-21T01:52:23;95043.03;;;6.74;100.00
65800;BME280;52544;48.116;11.660;2023-11-21T01:54:49;95046.78;;;6.71;100.00
65800;BME280;52544;48.116;11.660;2023-11-21T01:57:15;95047.69;;;6.70;100.00
65800;BME280;52544;48.116;11.660;2023-11-21T01:59:42;95046.88;;;6.70;100.00
65800;BME280;52544;48.116;11.660;2023-11-21T02:02:08;95054.66;;;6.71;100.00
65800;BME280;52544;48.116;11.660;2023-11-21T02:04:34;95060.16;;;6.68;100.00
65800;BME280;52544;48.116;11.660;2023-11-21T02:07:02;95057.53;;;6.68;100.00
65800;BME280;52544;48.116;11.660;2023-11-21T02:09:30;95058.72;;;6.75;100.00
65800;BME280;52544;48.116;11.660;2023-11-21T02:11:56;95061.31;;;6.87;100.00
65800;BME280;52544;48.116;11.660;2023-11-21T02:14:24;95059.28;;;6.90;100.00
65800;BME280;52544;48.116;11.660;2023-11-21T02:16:52;95056.06;;;6.87;100.00
65800;BME280;52544;48.116;11.660;2023-11-21T02:19:19;95060.59;;;6.96;100.00
65800;BME280;52544;48.116;11.660;2023-11-21T02:21:49;95056.19;;;6.85;100.00
65800;BME280;52544;48.116;11.660;2023-11-21T02:24:15;95055.69;;;6.91;100.00
65800;BME280;52544;48.116;11.660;2023-11-21T02:26:42;95059.63;;;7.08;100.00
65800;BME280;52544;48.116;11.660;2023-11-21T02:29:08;95051.25;;;7.03;100.00
65800;BME280;52544;48.116;11.660;2023-11-21T02:31:37;95057.59;;;7.00;100.00
65800;BME280;52544;48.116;11.660;2023-11-21T02:34:11;95062.16;;;7.10;100.00
65800;BME280;52544;48.116;11.660;2023-11-21T02:36:38;95058.41;;;7.12;100.00
65800;BME280;52544;48.116;11.660;2023-11-21T02:39:04;95066.75;;;7.29;100.00
65800;BME280;52544;48.116;11.660;2023-11-21T02:41:29;95059.84;;;7.28;100.00
65800;BME280;52544;48.116;11.660;2023-11-21T02:43:55;95065.78;;;7.30;100.00
65800;BME280;52544;48.116;11.660;2023-11-21T02:46:20;95067.13;;;7.24;100.00
65800;BME280;52544;48.116;11.660;2023-11-21T02:48:46;95060.53;;;7.30;100.00
65800;BME280;52544;48.116;11.660;2023-11-21T02:51:11;95055.31;;;7.18;100.00
65800;BME280;52544;48.116;11.660;2023-11-21T02:53:36;95057.22;;;7.16;100.00
65800;BME280;52544;48.116;11.660;2023-11-21T02:56:04;95061.06;;;7.12;100.00
65800;BME280;52544;48.116;11.660;2023-11-21T02:58:30;95057.22;;;7.16;100.00
65800;BME280;52544;48.116;11.660;2023-11-21T03:00:55;95052.91;;;7.15;100.00
65800;BME280;52544;48.116;11.660;2023-11-21T03:03:21;95049.13;;;6.97;100.00
65800;BME280;52544;48.116;11.660;2023-11-21T03:05:49;95040.41;;;6.85;100.00
65800;BME280;52544;48.116;11.660;2023-11-21T03:08:14;95041.63;;;6.81;100.00
65800;BME280;52544;48.116;11.660;2023-11-21T03:10:40;95047.94;;;6.90;100.00
65800;BME280;52544;48.116;11.660;2023-11-21T03:13:05;95036.97;;;6.85;100.00
65800;BME280;52544;48.116;11.660;2023-11-21T03:15:30;95045.31;;;6.79;100.00
65800;BME280;52544;48.116;11.660;2023-11-21T03:17:58;95043.50;;;6.79;100.00
65800;BME280;52544;48.116;11.660;2023-11-21T03:20:23;95039.94;;;6.80;100.00
65800;BME280;52544;48.116;11.660;2023-11-21T03:22:48;95032.16;;;6.79;100.00
65800;BME280;52544;48.116;11.660;2023-11-21T03:25:15;95034.19;;;6.75;100.00
65800;BME280;52544;48.116;11.660;2023-11-21T03:27:42;95030.00;;;6.84;100.00
65800;BME280;52544;48.116;11.660;2023-11-21T03:30:09;95034.19;;;6.86;100.00
65800;BME280;52544;48.116;11.660;2023-11-21T03:32:36;95025.47;;;6.74;100.00
65800;BME280;52544;48.116;11.660;2023-11-21T03:35:01;95027.41;;;6.72;100.00
65800;BME280;52544;48.116;11.660;2023-11-21T03:37:27;95031.09;;;6.70;100.00
65800;BME280;52544;48.116;11.660;2023-11-21T03:39:52;95034.56;;;6.70;100.00
65800;BME280;52544;48.116;11.660;2023-11-21T03:42:19;95026.81;;;6.69;100.00
65800;BME280;52544;48.116;11.660;2023-11-21T03:44:44;95027.63;;;6.69;100.00
65800;BME280;52544;48.116;11.660;2023-11-21T03:47:10;95027.88;;;6.66;100.00
65800;BME280;52544;48.116;11.660;2023-11-21T03:49:35;95032.19;;;6.67;100.00
65800;BME280;52544;48.116;11.660;2023-11-21T03:52:01;95033.13;;;6.66;100.00
65800;BME280;52544;48.116;11.660;2023-11-21T03:54:26;95031.31;;;6.67;100.00
65800;BME280;52544;48.116;11.660;2023-11-21T03:56:51;95039.59;;;6.73;100.00
65800;BME280;52544;48.116;11.660;2023-11-21T03:59:17;95037.09;;;6.72;100.00
65800;BME280;52544;48.116;11.660;2023-11-21T04:01:42;95037.56;;;6.77;100.00
65800;BME280;52544;48.116;11.660;2023-11-21T04:04:08;95035.75;;;6.78;100.00
65800;BME280;52544;48.116;11.660;2023-11-21T04:06:33;95048.91;;;6.78;100.00
65800;BME280;52544;48.116;11.660;2023-11-21T04:08:59;95045.09;;;6.82;100.00
65800;BME280;52544;48.116;11.660;2023-11-21T04:11:24;95037.19;;;6.82;100.00
65800;BME280;52544;48.116;11.660;2023-11-21T04:13:49;95037.06;;;6.83;100.00
65800;BME280;52544;48.116;11.660;2023-11-21T04:16:15;95035.25;;;6.84;100.00
65800;BME280;52544;48.116;11.660;2023-11-21T04:18:40;95037.78;;;6.85;100.00
65800;BME280;52544;48.116;11.660;2023-11-21T04:21:06;95028.47;;;6.81;100.00
65800;BME280;52544;48.116;11.660;2023-11-21T04:23:31;95030.25;;;6.81;100.00
65800;BME280;52544;48.116;11.660;2023-11-21T04:25:57;95029.44;;;6.80;100.00
65800;BME280;52544;48.116;11.660;2023-11-21T04:28:23;95035.75;;;6.78;100.00
65800;BME280;52544;48.116;11.660;2023-11-21T04:30:50;95038.88;;;6.71;100.00
65800;BME280;52544;48.116;11.660;2023-11-21T04:33:15;95044.13;;;6.60;100.00
65800;BME280;52544;48.116;11.660;2023-11-21T04:35:41;95038.06;;;6.60;100.00
65800;BME280;52544;48.116;11.660;2023-11-21T04:38:07;95047.47;;;6.62;100.00
65800;BME280;52544;48.116;11.660;2023-11-21T04:40:32;95042.44;;;6.82;100.00
65800;BME280;52544;48.116;11.660;2023-11-21T04:42:58;95047.72;;;6.93;100.00
65800;BME280;52544;48.116;11.660;2023-11-21T04:45:23;95046.75;;;6.94;100.00
65800;BME280;52544;48.116;11.660;2023-11-21T04:47:48;95043.75;;;6.98;100.00
65800;BME280;52544;48.116;11.660;2023-11-21T04:50:14;95034.88;;;6.99;100.00
65800;BME280;52544;48.116;11.660;2023-11-21T04:52:39;95035.97;;;6.97;100.00
65800;BME280;52544;48.116;11.660;2023-11-21T04:55:05;95034.50;;;7.04;100.00
65800;BME280;52544;48.116;11.660;2023-11-21T04:57:31;95033.81;;;7.02;100.00
65800;BME280;52544;48.116;11.660;2023-11-21T04:59:57;95031.28;;;7.00;100.00
65800;BME280;52544;48.116;11.660;2023-11-21T05:02:22;95034.06;;;6.99;100.00
65800;BME280;52544;48.116;11.660;2023-11-21T05:04:47;95033.34;;;6.97;100.00
65800;BME280;52544;48.116;11.660;2023-11-21T05:07:13;95036.22;;;7.05;100.00
65800;BME280;52544;48.116;11.660;2023-11-21T05:09:42;95036.69;;;6.99;100.00
65800;BME280;52544;48.116;11.660;2023-11-21T05:12:09;95037.97;;;7.05;100.00
65800;BME280;52544;48.116;11.660;2023-11-21T05:14:36;95039.56;;;6.96;100.00
65800;BME280;52544;48.116;11.660;2023-11-21T05:17:02;95034.06;;;6.99;100.00
65800;BME280;52544;48.116;11.660;2023-11-21T05:19:27;95039.56;;;6.96;100.00
65800;BME280;52544;48.116;11.660;2023-11-21T05:21:53;95046.25;;;7.00;100.00
65800;BME280;52544;48.116;11.660;2023-11-21T05:24:19;95045.53;;;6.98;100.00
65800;BME280;52544;48.116;11.660;2023-11-21T05:26:44;95053.19;;;7.01;100.00
65800;BME280;52544;48.116;11.660;2023-11-21T05:29:10;95052.94;;;7.04;100.00
65800;BME280;52544;48.116;11.660;2023-11-21T05:31:36;95053.19;;;7.01;100.00
65800;BME280;52544;48.116;11.660;2023-11-21T05:34:02;95059.53;;;6.98;100.00
65800;BME280;52544;48.116;11.660;2023-11-21T05:36:28;95067.19;;;7.01;100.00
65800;BME280;52544;48.116;11.660;2023-11-21T05:38:53;95067.06;;;7.03;100.00
65800;BME280;52544;48.116;11.660;2023-11-21T05:41:19;95059.88;;;7.05;100.00
65800;BME280;52544;48.116;11.660;2023-11-21T05:43:44;95058.56;;;6.99;100.00
65800;BME280;52544;48.116;11.660;2023-11-21T05:46:09;95060.72;;;6.94;100.00
65800;BME280;52544;48.116;11.660;2023-11-21T05:48:35;95051.53;;;6.89;100.00
65800;BME280;52544;48.116;11.660;2023-11-21T05:51:04;95057.25;;;6.94;100.00
65800;BME280;52544;48.116;11.660;2023-11-21T05:53:30;95057.13;;;6.95;100.00
65800;BME280;52544;48.116;11.660;2023-11-21T05:55:55;95064.19;;;6.95;100.00
65800;BME280;52544;48.116;11.660;2023-11-21T05:58:21;95070.19;;;6.97;100.00
65800;BME280;52544;48.116;11.660;2023-11-21T06:00:46;95066.34;;;6.90;100.00
65800;BME280;52544;48.116;11.660;2023-11-21T06:03:12;95071.38;;;6.93;100.00
65800;BME280;52544;48.116;11.660;2023-11-21T06:05:37;95072.09;;;6.95;100.00
65800;BME280;52544;48.116;11.660;2023-11-21T06:08:03;95071.13;;;6.96;100.00
65800;BME280;52544;48.116;11.660;2023-11-21T06:10:29;95072.44;;;6.90;100.00
65800;BME280;52544;48.116;11.660;2023-11-21T06:12:54;95067.69;;;6.84;100.00
65800;BME280;52544;48.116;11.660;2023-11-21T06:15:20;95071.63;;;6.79;100.00
65800;BME280;52544;48.116;11.660;2023-11-21T06:17:47;95076.78;;;6.80;100.00
65800;BME280;52544;48.116;11.660;2023-11-21T06:20:17;95085.72;;;6.78;100.00
65800;BME280;52544;48.116;11.660;2023-11-21T06:22:45;95082.25;;;6.77;100.00
65800;BME280;52544;48.116;11.660;2023-11-21T06:25:12;95085.00;;;6.87;100.00
65800;BME280;52544;48.116;11.660;2023-11-21T06:27:44;95087.16;;;6.93;100.00
65800;BME280;52544;48.116;11.660;2023-11-21T06:30:10;95090.63;;;6.93;100.00
65800;BME280;52544;48.116;11.660;2023-11-21T06:32:37;95101.13;;;7.05;100.00
65800;BME280;52544;48.116;11.660;2023-11-21T06:35:03;95095.28;;;6.90;100.00
65800;BME280;52544;48.116;11.660;2023-11-21T06:37:30;95100.78;;;6.87;100.00
65800;BME280;52544;48.116;11.660;2023-11-21T06:39:56;95094.19;;;6.92;100.00
65800;BME280;52544;48.116;11.660;2023-11-21T06:42:22;95095.28;;;6.90;100.00
65800;BME280;52544;48.116;11.660;2023-11-21T06:44:48;95097.91;;;7.01;100.00
65800;BME280;52544;48.116;11.660;2023-11-21T06:47:14;95105.56;;;6.93;100.00
65800;BME280;52544;48.116;11.660;2023-11-21T06:49:42;95107.22;;;6.83;100.00
65800;BME280;52544;48.116;11.660;2023-11-21T06:52:08;95117.75;;;6.83;100.00
65800;BME280;52544;48.116;11.660;2023-11-21T06:54:33;95118.13;;;6.89;100.00
65800;BME280;52544;48.116;11.660;2023-11-21T06:57:00;95121.72;;;6.88;100.00
65800;BME280;52544;48.116;11.660;2023-11-21T06:59:25;95121.84;;;6.98;100.00
65800;BME280;52544;48.116;11.660;2023-11-21T07:01:51;95113.94;;;6.98;100.00
65800;BME280;52544;48.116;11.660;2023-11-21T07:04:16;95125.06;;;6.90;100.00
65800;BME280;52544;48.116;11.660;2023-11-21T07:06:43;95127.56;;;6.92;100.00
65800;BME280;52544;48.116;11.660;2023-11-21T07:09:09;95127.94;;;6.98;100.00
65800;BME280;52544;48.116;11.660;2023-11-21T07:11:38;95124.69;;;7.06;100.00
65800;BME280;52544;48.116;11.660;2023-11-21T07:14:04;95133.31;;;6.97;100.00
65800;BME280;52544;48.116;11.660;2023-11-21T07:16:35;95129.00;;;6.96;100.00
65800;BME280;52544;48.116;11.660;2023-11-21T07:19:06;95135.69;;;7.00;100.00
65800;BME280;52544;48.116;11.660;2023-11-21T07:21:35;95130.31;;;7.01;100.00
65800;BME280;52544;48.116;11.660;2023-11-21T07:24:01;95136.88;;;7.07;100.00
65800;BME280;52544;48.116;11.660;2023-11-21T07:26:27;95139.53;;;7.07;100.00
65800;BME280;52544;48.116;11.660;2023-11-21T07:28:53;95132.34;;;6.98;100.00
65800;BME280;52544;48.116;11.660;2023-11-21T07:31:19;95141.69;;;7.02;100.00
65800;BME280;52544;48.116;11.660;2023-11-21T07:33:48;95138.09;;;7.03;100.00
65800;BME280;52544;48.116;11.660;2023-11-21T07:36:14;95136.53;;;7.00;100.00
65800;BME280;52544;48.116;11.660;2023-11-21T07:38:40;95142.38;;;7.04;100.00
65800;BME280;52544;48.116;11.660;2023-11-21T07:41:05;95144.91;;;7.06;100.00
65800;BME280;52544;48.116;11.660;2023-11-21T07:43:34;95146.22;;;7.00;100.00
65800;BME280;52544;48.116;11.660;2023-11-21T07:46:03;95144.78;;;6.96;100.00
65800;BME280;52544;48.116;11.660;2023-11-21T07:48:33;95142.16;;;7.07;100.00
65800;BME280;52544;48.116;11.660;2023-11-21T07:50:59;95154.47;;;6.95;100.00
65800;BME280;52544;48.116;11.660;2023-11-21T07:53:25;95152.44;;;6.99;100.00
65800;BME280;52544;48.116;11.660;2023-11-21T07:55:51;95152.44;;;6.99;100.00
65800;BME280;52544;48.116;11.660;2023-11-21T07:58:17;95154.84;;;7.02;100.00
65800;BME280;52544;48.116;11.660;2023-11-21T08:00:43;95155.31;;;7.07;100.00
65800;BME280;52544;48.116;11.660;2023-11-21T08:03:08;95155.31;;;7.07;100.00
65800;BME280;52544;48.116;11.660;2023-11-21T08:05:34;95150.88;;;7.08;100.00
65800;BME280;52544;48.116;11.660;2023-11-21T08:07:59;95159.00;;;7.05;100.00
65800;BME280;52544;48.116;11.660;2023-11-21T08:10:25;95155.19;;;7.09;100.00
65800;BME280;52544;48.116;11.660;2023-11-21T08:12:51;95148.72;;;7.24;100.00
65800;BME280;52544;48.116;11.660;2023-11-21T08:15:16;95149.41;;;7.37;100.00
65800;BME280;52544;48.116;11.660;2023-11-21T08:17:42;95141.38;;;7.39;100.00
65800;BME280;52544;48.116;11.660;2023-11-21T08:20:08;95147.59;;;7.49;100.00
65800;BME280;52544;48.116;11.660;2023-11-21T08:22:35;95145.44;;;7.54;100.00
65800;BME280;52544;48.116;11.660;2023-11-21T08:25:01;95147.78;;;7.68;100.00
65800;BME280;52544;48.116;11.660;2023-11-21T08:27:29;95144.69;;;7.63;100.00
65800;BME280;52544;48.116;11.660;2023-11-21T08:29:54;95146.94;;;7.68;100.00
65800;BME280;52544;48.116;11.660;2023-11-21T08:32:21;95151.16;;;7.70;100.00
65800;BME280;52544;48.116;11.660;2023-11-21T08:34:47;95148.88;;;7.66;100.00
65800;BME280;52544;48.116;11.660;2023-11-21T08:37:16;95151.63;;;7.64;100.00
65800;BME280;52544;48.116;11.660;2023-11-21T08:39:43;95147.78;;;7.68;100.00
65800;BME280;52544;48.116;11.660;2023-11-21T08:42:09;95145.88;;;7.70;100.00
65800;BME280;52544;48.116;11.660;2023-11-21T08:44:34;95144.66;;;7.74;100.00
65800;BME280;52544;48.116;11.660;2023-11-21T08:47:00;95142.03;;;7.74;100.00
65800;BME280;52544;48.116;11.660;2023-11-21T08:49:25;95140.03;;;7.67;100.00
65800;BME280;52544;48.116;11.660;2023-11-21T08:51:53;95146.72;;;7.71;100.00
65800;BME280;52544;48.116;11.660;2023-11-21T08:54:21;95146.63;;;7.61;100.00
65800;BME280;52544;48.116;11.660;2023-11-21T08:56:46;95153.19;;;7.67;100.00
65800;BME280;52544;48.116;11.660;2023-11-21T08:59:13;95149.72;;;7.66;100.00
65800;BME280;52544;48.116;11.660;2023-11-21T09:01:39;95152.81;;;7.71;100.00
65800;BME280;52544;48.116;11.660;2023-11-21T09:04:05;95150.09;;;7.94;100.00
65800;BME280;52544;48.116;11.660;2023-11-21T09:06:30;95153.06;;;8.33;100.00
65800;BME280;52544;48.116;11.660;2023-11-21T09:08:56;95162.69;;;8.55;100.00
65800;BME280;52544;48.116;11.660;2023-11-21T09:11:21;95157.84;;;8.81;100.00
65800;BME280;52544;48.116;11.660;2023-11-21T09:13:46;95165.66;;;8.92;100.00
65800;BME280;52544;48.116;11.660;2023-11-21T09:16:14;95167.44;;;8.82;100.00
65800;BME280;52544;48.116;11.660;2023-11-21T09:18:39;95164.09;;;8.80;100.00
65800;BME280;52544;48.116;11.660;2023-11-21T09:21:05;95171.16;;;8.79;100.00
65800;BME280;52544;48.116;11.660;2023-11-21T09:23:30;95178.50;;;8.75;100.00
65800;BME280;52544;48.116;11.660;2023-11-21T09:25:56;95181.91;;;8.66;100.00
65800;BME280;52544;48.116;11.660;2023-11-21T09:28:22;95187.31;;;8.65;100.00
65800;BME280;52544;48.116;11.660;2023-11-21T09:30:47;95187.38;;;8.54;100.00
65800;BME280;52544;48.116;11.660;2023-11-21T09:33:15;95183.91;;;8.53;100.00
65800;BME280;52544;48.116;11.660;2023-11-21T09:35:40;95186.47;;;8.64;100.00
65800;BME280;52544;48.116;11.660;2023-11-21T09:38:06;95187.44;;;8.63;100.00
65800;BME280;52544;48.116;11.660;2023-11-21T09:40:36;95190.13;;;8.52;100.00
65800;BME280;52544;48.116;11.660;2023-11-21T09:43:07;95185.44;;;8.56;100.00
65800;BME280;52544;48.116;11.660;2023-11-21T09:45:38;95195.66;;;8.49;100.00
65800;BME280;52544;48.116;11.660;2023-11-21T09:48:04;95191.81;;;8.53;100.00
65800;BME280;52544;48.116;11.660;2023-11-21T09:50:32;95178.16;;;8.48;100.00
65800;BME280;52544;48.116;11.660;2023-11-21T09:55:27;95184.38;;;8.58;100.00
65800;BME280;52544;48.116;11.660;2023-11-21T09:57:56;95190.19;;;8.62;100.00
65800;BME280;52544;48.116;11.660;2023-11-21T10:00:22;95184.69;;;8.65;100.00
65800;BME280;52544;48.116;11.660;2023-11-21T10:02:53;95176.81;;;8.54;100.00
65800;BME280;52544;48.116;11.660;2023-11-21T10:05:18;95185.31;;;8.57;100.00
65800;BME280;52544;48.116;11.660;2023-11-21T10:07:49;95192.72;;;8.63;100.00
65800;BME280;52544;48.116;11.660;2023-11-21T10:10:18;95178.31;;;8.67;100.00
65800;BME280;52544;48.116;11.660;2023-11-21T10:12:49;95183.78;;;8.75;100.00
65800;BME280;52544;48.116;11.660;2023-11-21T10:15:16;95178.81;;;8.82;100.00
65800;BME280;52544;48.116;11.660;2023-11-21T10:17:44;95185.91;;;8.82;100.00
65800;BME280;52544;48.116;11.660;2023-11-21T10:20:11;95175.88;;;8.75;100.00
65800;BME280;52544;48.116;11.660;2023-11-21T10:22:41;95178.03;;;8.91;100.00
65800;BME280;52544;48.116;11.660;2023-11-21T10:25:10;95179.50;;;9.05;100.00
65800;BME280;52544;48.116;11.660;2023-11-21T10:27:39;95175.63;;;9.09;100.00
65800;BME280;52544;48.116;11.660;2023-11-21T10:30:05;95172.88;;;8.90;100.00
65800;BME280;52544;48.116;11.660;2023-11-21T10:32:31;95171.69;;;9.04;100.00
65800;BME280;52544;48.116;11.660;2023-11-21T10:34:58;95173.50;;;9.03;100.00
65800;BME280;52544;48.116;11.660;2023-11-21T10:37:31;95171.75;;;9.13;100.00
65800;BME280;52544;48.116;11.660;2023-11-21T10:39:58;95179.47;;;9.26;100.00
65800;BME280;52544;48.116;11.660;2023-11-21T10:42:24;95176.81;;;9.26;100.00
65800;BME280;52544;48.116;11.660;2023-11-21T10:44:49;95182.53;;;9.31;100.00
65800;BME280;52544;48.116;11.660;2023-11-21T10:47:16;95181.97;;;9.27;100.00
65800;BME280;52544;48.116;11.660;2023-11-21T10:49:44;95178.34;;;9.29;100.00
65800;BME280;52544;48.116;11.660;2023-11-21T10:52:13;95179.75;;;9.33;100.00
65800;BME280;52544;48.116;11.660;2023-11-21T10:54:43;95179.56;;;9.24;100.00
65800;BME280;52544;48.116;11.660;2023-11-21T10:57:10;95182.47;;;9.21;100.00
65800;BME280;52544;48.116;11.660;2023-11-21T10:59:35;95179.69;;;9.13;100.00
65800;BME280;52544;48.116;11.660;2023-11-21T11:02:02;95178.97;;;9.11;100.00
65800;BME280;52544;48.116;11.660;2023-11-21T11:04:33;95179.94;;;9.10;100.00
65800;BME280;52544;48.116;11.660;2023-11-21T11:07:03;95178.28;;;9.09;100.00
65800;BME280;52544;48.116;11.660;2023-11-21T11:09:31;95177.13;;;9.02;100.00
65800;BME280;52544;48.116;11.660;2023-11-21T11:11:58;95176.59;;;9.08;100.00
65800;BME280;52544;48.116;11.660;2023-11-21T11:14:24;95176.88;;;9.05;100.00
65800;BME280;52544;48.116;11.660;2023-11-21T11:16:53;95178.78;;;9.03;100.00
65800;BME280;52544;48.116;11.660;2023-11-21T11:19:19;95172.34;;;8.96;100.00
65800;BME280;52544;48.116;11.660;2023-11-21T11:22:04;95180.44;;;9.04;100.00
65800;BME280;52544;48.116;11.660;2023-11-21T11:24:53;95171.03;;;9.11;100.00
65800;BME280;52544;48.116;11.660;2023-11-21T11:30:39;95172.94;;;8.99;100.00
65800;BME280;52544;48.116;11.660;2023-11-21T11:33:21;95168.22;;;9.03;100.00
65800;BME280;52544;48.116;11.660;2023-11-21T11:36:02;95171.59;;;9.05;100.00
65800;BME280;52544;48.116;11.660;2023-11-21T11:38:32;95167.97;;;9.06;100.00
65800;BME280;52544;48.116;11.660;2023-11-21T11:41:01;95167.44;;;9.12;100.00
65800;BME280;52544;48.116;11.660;2023-11-21T11:43:28;95165.97;;;9.29;100.00
65800;BME280;52544;48.116;11.660;2023-11-21T11:45:57;95165.88;;;9.40;100.00
65800;BME280;52544;48.116;11.660;2023-11-21T11:48:24;95171.13;;;9.31;100.00
65800;BME280;52544;48.116;11.660;2023-11-21T11:51:12;95168.72;;;9.18;100.00
65800;BME280;52544;48.116;11.660;2023-11-21T11:53:43;95162.25;;;9.32;100.00
65800;BME280;52544;48.116;11.660;2023-11-21T11:56:33;95158.72;;;9.21;100.00
65800;BME280;52544;48.116;11.660;2023-11-21T11:59:01;95166.13;;;9.27;100.00
65800;BME280;52544;48.116;11.660;2023-11-21T12:01:33;95163.91;;;9.33;100.00
65800;BME280;52544;48.116;11.660;2023-11-21T12:06:36;95157.44;;;9.16;100.00
65800;BME280;52544;48.116;11.660;2023-11-21T12:09:02;95164.44;;;9.26;100.00
65800;BME280;52544;48.116;11.660;2023-11-21T12:11:31;95170.78;;;9.14;100.00
65800;BME280;52544;48.116;11.660;2023-11-21T12:13:57;95169.63;;;9.07;100.00
65800;BME280;52544;48.116;11.660;2023-11-21T12:16:25;95161.03;;;9.05;100.00
65800;BME280;52544;48.116;11.660;2023-11-21T12:18:53;95166.41;;;9.04;100.00
65800;BME280;52544;48.116;11.660;2023-11-21T12:21:19;95169.06;;;9.04;100.00
65800;BME280;52544;48.116;11.660;2023-11-21T12:23:45;95168.66;;;9.08;100.00
65800;BME280;52544;48.116;11.660;2023-11-21T12:26:13;95164.09;;;9.10;100.00
65800;BME280;52544;48.116;11.660;2023-11-21T12:28:38;95174.13;;;9.16;100.00
65800;BME280;52544;48.116;11.660;2023-11-21T12:31:04;95166.41;;;9.04;100.00
65800;BME280;52544;48.116;11.660;2023-11-21T12:33:35;95171.31;;;9.08;100.00
65800;BME280;52544;48.116;11.660;2023-11-21T12:36:00;95165.91;;;9.10;100.00
65800;BME280;52544;48.116;11.660;2023-11-21T12:38:34;95165.06;;;9.09;100.00
65800;BME280;52544;48.116;11.660;2023-11-21T12:41:00;95163.38;;;9.08;100.00
65800;BME280;52544;48.116;11.660;2023-11-21T12:43:25;95161.63;;;9.18;100.00
65800;BME280;52544;48.116;11.660;2023-11-21T12:46:04;95160.84;;;9.27;100.00
65800;BME280;52544;48.116;11.660;2023-11-21T12:48:31;95168.19;;;9.24;100.00
65800;BME280;52544;48.116;11.660;2023-11-21T12:50:57;95169.72;;;9.26;100.00
65800;BME280;52544;48.116;11.660;2023-11-21T12:53:25;95172.63;;;9.23;100.00
65800;BME280;52544;48.116;11.660;2023-11-21T12:55:51;95168.09;;;9.35;100.00